Time;durP1;ratioP1;P1;durP2;ratioP2;P2;SDS_P1;SDS_P2;PMS_P1;PMS_P2;Temp;Humidity;BMP_temperature;BMP_pressure;BME280_temperature;BME280_humidity;BME280_pressure;Samples;Min_cycle;Max_cycle;Signal;HPM_P1;HPM_P2
2022/04/14 00:00:34;;;;;;;36.80;32.90;;;;;;;-150.27;100.00;61272.81;5196009;28;20018;-73
2022/04/14 00:03:05;;;;;;;36.87;32.93;;;;;;;-150.27;100.00;61272.81;5208838;28;20018;-73
2022/04/14 00:05:37;;;;;;;36.93;32.87;;;;;;;-150.27;100.00;61272.81;5206896;28;20108;-73
2022/04/14 00:08:08;;;;;;;36.40;32.57;;;;;;;-150.27;100.00;61272.81;5206309;28;20854;-75
2022/04/14 00:10:39;;;;;;;35.10;31.73;;;;;;;-150.27;100.00;61272.81;5202005;28;20468;-72
2022/04/14 00:13:11;;;;;;;35.13;31.43;;;;;;;-150.27;100.00;61272.81;5203711;28;20509;-72
2022/04/14 00:15:42;;;;;;;36.33;32.70;;;;;;;-150.27;100.00;61272.81;5207470;28;20114;-73
2022/04/14 00:18:13;;;;;;;36.07;32.37;;;;;;;-150.27;100.00;61272.81;5211668;28;20034;-72
2022/04/14 00:20:45;;;;;;;37.00;33.10;;;;;;;-150.27;100.00;61272.81;5186223;28;20061;-73
2022/04/14 00:23:16;;;;;;;38.27;33.60;;;;;;;-150.27;100.00;61272.81;5211878;28;20033;-73
2022/04/14 00:25:47;;;;;;;35.43;31.63;;;;;;;-150.27;100.00;61272.81;5204939;28;20114;-73
2022/04/14 00:28:18;;;;;;;35.13;31.67;;;;;;;-150.27;100.00;61272.81;5205963;28;20038;-73
2022/04/14 00:30:50;;;;;;;34.33;30.97;;;;;;;-150.27;100.00;61272.81;5206159;28;20034;-72
2022/04/14 00:33:21;;;;;;;35.37;31.57;;;;;;;-150.27;100.00;61272.81;5210666;28;20122;-72
2022/04/14 00:35:52;;;;;;;35.17;31.53;;;;;;;-150.27;100.00;61272.81;5194213;28;20081;-70
2022/04/14 00:38:24;;;;;;;34.50;30.83;;;;;;;-150.27;100.00;61272.81;5210718;28;20484;-73
2022/04/14 00:40:55;;;;;;;35.23;31.77;;;;;;;-150.27;100.00;61272.81;5207701;28;20148;-74
2022/04/14 00:43:31;;;;;;;31.87;28.80;;;;;;;-150.27;100.00;61272.81;5208359;28;20025;-73
2022/04/14 00:46:03;;;;;;;35.07;31.37;;;;;;;-150.27;100.00;61272.81;5205352;28;20033;-74
2022/04/14 00:48:34;;;;;;;34.03;30.67;;;;;;;-150.27;100.00;61272.81;5210906;28;20431;-73
2022/04/14 00:51:07;;;;;;;32.77;29.33;;;;;;;-150.27;100.00;61272.81;5200101;28;20037;-73
2022/04/14 00:53:39;;;;;;;35.77;32.07;;;;;;;-150.27;100.00;61272.81;5210261;28;20465;-72
2022/04/14 00:56:11;;;;;;;34.60;30.67;;;;;;;-150.27;100.00;61272.81;5202073;28;20547;-72
2022/04/14 00:58:43;;;;;;;32.37;29.17;;;;;;;-150.27;100.00;61272.81;5208577;28;20034;-73
2022/04/14 01:01:14;;;;;;;31.50;28.33;;;;;;;-150.27;100.00;61272.81;5208966;28;20026;-73
2022/04/14 01:03:47;;;;;;;33.40;30.00;;;;;;;-150.27;100.00;61272.81;5211730;22;20022;-73
2022/04/14 01:06:23;;;;;;;33.40;29.93;;;;;;;-150.27;100.00;61272.81;5235379;28;20056;-73
2022/04/14 01:11:55;;;;;;;33.23;29.60;;;;;;;-150.27;100.00;61272.81;5227571;28;20041;-73
2022/04/14 01:14:32;;;;;;;33.13;29.73;;;;;;;-150.27;100.00;61272.81;5221247;28;20037;-72
2022/04/14 01:17:07;;;;;;;33.70;29.37;;;;;;;-150.27;100.00;61272.81;5231993;28;20033;-72
2022/04/14 01:19:38;;;;;;;35.03;31.17;;;;;;;-150.27;100.00;61272.81;5229821;28;20022;-73
2022/04/14 01:22:24;;;;;;;35.70;32.00;;;;;;;-150.27;100.00;61272.81;5206339;28;20040;-74
2022/04/14 01:24:57;;;;;;;34.07;30.53;;;;;;;-150.27;100.00;61272.81;5218957;28;20021;-73
2022/04/14 01:27:29;;;;;;;36.83;31.27;;;;;;;-150.27;100.00;61272.81;5221120;28;20539;-74
2022/04/14 01:30:01;;;;;;;34.20;30.80;;;;;;;-150.27;100.00;61272.81;5211307;28;20121;-73
2022/04/14 01:32:32;;;;;;;34.03;30.10;;;;;;;-150.27;100.00;61272.81;5229265;28;20099;-73
2022/04/14 01:35:06;;;;;;;33.27;29.87;;;;;;;-150.27;100.00;61272.81;5229692;28;20034;-73
2022/04/14 01:37:37;;;;;;;34.00;30.37;;;;;;;-150.27;100.00;61272.81;5224602;28;20103;-73
2022/04/14 01:40:09;;;;;;;34.97;31.27;;;;;;;-150.27;100.00;61272.81;5222965;28;20030;-73
2022/04/14 01:42:40;;;;;;;37.13;32.93;;;;;;;-150.27;100.00;61272.81;5224396;28;20594;-73
2022/04/14 01:45:12;;;;;;;34.50;30.73;;;;;;;-150.27;100.00;61272.81;5229128;28;20017;-73
2022/04/14 01:47:45;;;;;;;35.10;31.63;;;;;;;-150.27;100.00;61272.81;5223549;28;20041;-73
2022/04/14 01:50:16;;;;;;;35.17;31.43;;;;;;;-150.27;100.00;61272.81;5206141;28;20030;-74
2022/04/14 01:52:47;;;;;;;34.87;31.37;;;;;;;-150.27;100.00;61272.81;5222809;28;20039;-73
2022/04/14 01:55:19;;;;;;;35.83;32.00;;;;;;;-150.27;100.00;61272.81;5223600;28;20033;-73
2022/04/14 01:57:50;;;;;;;35.67;31.83;;;;;;;-150.27;100.00;61272.81;5222403;28;20036;-72
2022/04/14 02:00:21;;;;;;;38.63;33.13;;;;;;;-150.27;100.00;61272.81;5218039;28;20060;-72
2022/04/14 02:02:52;;;;;;;36.93;32.33;;;;;;;-150.27;100.00;61272.81;5207528;28;20044;-73
2022/04/14 02:05:24;;;;;;;39.67;34.87;;;;;;;-150.27;100.00;61272.81;5224474;28;20046;-73
2022/04/14 02:07:55;;;;;;;36.30;32.50;;;;;;;-150.27;100.00;61272.81;5222348;28;20029;-73
2022/04/14 02:10:26;;;;;;;39.40;33.27;;;;;;;-150.27;100.00;61272.81;5228972;28;20033;-73
2022/04/14 02:12:59;;;;;;;36.03;32.23;;;;;;;-150.27;100.00;61272.81;5226658;28;20167;-73
2022/04/14 02:15:30;;;;;;;39.23;35.13;;;;;;;-150.27;100.00;61272.81;5228562;28;20033;-73
2022/04/14 02:18:01;;;;;;;36.20;32.40;;;;;;;-150.27;100.00;61272.81;5221488;28;20026;-72
2022/04/14 02:20:32;;;;;;;35.07;31.40;;;;;;;-150.27;100.00;61272.81;5223767;28;20491;-72
2022/04/14 02:23:04;;;;;;;38.00;32.17;;;;;;;-150.27;100.00;61272.81;5226946;28;20041;-72
2022/04/14 02:25:35;;;;;;;37.10;33.17;;;;;;;-150.27;100.00;61272.81;5229996;28;20068;-72
2022/04/14 02:28:07;;;;;;;37.20;32.87;;;;;;;-150.27;100.00;61272.81;5230115;28;20037;-73
2022/04/14 02:30:38;;;;;;;35.70;31.83;;;;;;;-150.27;100.00;61272.81;5227690;28;20026;-72
2022/04/14 02:33:09;;;;;;;37.20;32.97;;;;;;;-150.27;100.00;61272.81;5230327;28;20029;-72
2022/04/14 02:35:41;;;;;;;37.63;32.23;;;;;;;-150.27;100.00;61272.81;5227456;28;20152;-72
2022/04/14 02:38:13;;;;;;;38.10;32.30;;;;;;;-150.27;100.00;61272.81;5226185;28;20037;-72
2022/04/14 02:40:45;;;;;;;41.77;34.63;;;;;;;-150.27;100.00;61272.81;5214184;28;20377;-72
2022/04/14 02:43:16;;;;;;;40.67;32.73;;;;;;;-150.27;100.00;61272.81;5230576;28;20033;-72
2022/04/14 02:45:47;;;;;;;38.37;33.63;;;;;;;-150.27;100.00;61272.81;5211247;28;20041;-72
2022/04/14 02:48:18;;;;;;;38.10;34.07;;;;;;;-150.27;100.00;61272.81;5230088;28;20033;-73
2022/04/14 02:50:50;;;;;;;36.33;32.43;;;;;;;-150.27;100.00;61272.81;5222203;28;20030;-72
2022/04/14 02:53:21;;;;;;;35.20;31.17;;;;;;;-150.27;100.00;61272.81;5211789;28;20041;-72
2022/04/14 02:55:52;;;;;;;35.93;31.33;;;;;;;-150.27;100.00;61272.81;5224068;28;20041;-73
2022/04/14 02:58:24;;;;;;;36.40;32.60;;;;;;;-150.27;100.00;61272.81;5230014;28;20030;-73
2022/04/14 03:00:55;;;;;;;38.00;34.00;;;;;;;-150.27;100.00;61272.81;5221922;28;20042;-73
2022/04/14 03:03:28;;;;;;;40.37;34.27;;;;;;;-150.27;100.00;61272.81;5227574;28;20021;-74
2022/04/14 03:05:59;;;;;;;39.27;32.97;;;;;;;-150.27;100.00;61272.81;5219682;28;20081;-73
2022/04/14 03:08:30;;;;;;;36.60;32.73;;;;;;;-150.27;100.00;61272.81;5221507;28;20511;-73
2022/04/14 03:11:01;;;;;;;37.97;33.60;;;;;;;-150.27;100.00;61272.81;5219869;28;20089;-73
2022/04/14 03:13:33;;;;;;;37.83;33.77;;;;;;;-150.27;100.00;61272.81;5206770;28;20037;-72
2022/04/14 03:16:04;;;;;;;37.23;33.13;;;;;;;-150.27;100.00;61272.81;5210554;28;20041;-73
2022/04/14 03:18:35;;;;;;;38.77;34.57;;;;;;;-150.27;100.00;61272.81;5229299;28;20033;-73
2022/04/14 03:21:07;;;;;;;38.33;33.87;;;;;;;-150.27;100.00;61272.81;5216446;28;20037;-73
2022/04/14 03:23:39;;;;;;;38.43;34.23;;;;;;;-150.27;100.00;61272.81;5188458;28;20037;-73
2022/04/14 03:26:10;;;;;;;37.97;33.97;;;;;;;-150.27;100.00;61272.81;5226462;28;20406;-73
2022/04/14 03:28:42;;;;;;;38.03;33.00;;;;;;;-150.27;100.00;61272.81;5222342;28;20040;-73
2022/04/14 03:31:13;;;;;;;43.10;34.83;;;;;;;-150.27;100.00;61272.81;5222973;28;20029;-74
2022/04/14 03:33:44;;;;;;;43.70;38.93;;;;;;;-150.27;100.00;61272.81;5229627;28;20112;-73
2022/04/14 03:36:15;;;;;;;43.20;34.87;;;;;;;-150.27;100.00;61272.81;5231697;28;20532;-72
2022/04/14 03:38:47;;;;;;;40.70;34.63;;;;;;;-150.27;100.00;61272.81;5229621;28;20033;-73
2022/04/14 03:41:18;;;;;;;39.60;35.13;;;;;;;-150.27;100.00;61272.81;5227185;28;20040;-73
2022/04/14 03:43:49;;;;;;;40.27;35.87;;;;;;;-150.27;100.00;61272.81;5218582;28;20034;-73
2022/04/14 03:46:21;;;;;;;41.80;36.23;;;;;;;-150.27;100.00;61272.81;5221169;28;20029;-73
2022/04/14 03:48:53;;;;;;;39.10;34.87;;;;;;;-150.27;100.00;61272.81;5227354;28;20124;-73
2022/04/14 03:51:25;;;;;;;41.53;35.17;;;;;;;-150.27;100.00;61272.81;5199510;28;20531;-74
2022/04/14 03:53:56;;;;;;;41.57;36.00;;;;;;;-150.27;100.00;61272.81;5229690;28;20121;-72
2022/04/14 03:56:28;;;;;;;45.33;38.70;;;;;;;-150.27;100.00;61272.81;5226979;28;20030;-73
2022/04/14 03:59:00;;;;;;;47.83;39.03;;;;;;;-150.27;100.00;61272.81;5207308;28;20030;-72
2022/04/14 04:01:31;;;;;;;52.40;41.53;;;;;;;-150.27;100.00;61272.81;5218558;28;20482;-74
2022/04/14 04:04:03;;;;;;;73.87;41.30;;;;;;;-150.27;100.00;61272.81;5227427;28;20076;-72
2022/04/14 04:06:34;;;;;;;71.83;44.47;;;;;;;-150.27;100.00;61272.81;5218263;28;20034;-72
2022/04/14 04:09:05;;;;;;;71.00;41.80;;;;;;;-150.27;100.00;61272.81;5225722;28;20172;-72
2022/04/14 04:11:37;;;;;;;73.87;41.87;;;;;;;-150.27;100.00;61272.81;5215629;28;20037;-72
2022/04/14 04:14:08;;;;;;;105.67;42.93;;;;;;;-150.27;100.00;61272.81;5232565;28;20041;-72
2022/04/14 04:16:39;;;;;;;91.13;43.17;;;;;;;-150.27;100.00;61272.81;5227787;28;20041;-72
2022/04/14 04:19:11;;;;;;;128.57;39.67;;;;;;;-150.27;100.00;61272.81;5224360;28;20030;-72
2022/04/14 04:21:42;;;;;;;107.87;39.37;;;;;;;-150.27;100.00;61272.81;5201504;28;20037;-72
2022/04/14 04:24:14;;;;;;;138.33;40.17;;;;;;;-150.27;100.00;61272.81;5228691;28;20025;-73
2022/04/14 04:26:45;;;;;;;101.27;37.33;;;;;;;-150.27;100.00;61272.81;5225600;28;20033;-73
2022/04/14 04:29:16;;;;;;;90.27;38.17;;;;;;;-150.27;100.00;61272.81;5225038;28;20041;-72
2022/04/14 04:31:47;;;;;;;102.87;36.70;;;;;;;-150.27;100.00;61272.81;5209301;28;20034;-73
2022/04/14 04:34:19;;;;;;;83.13;36.50;;;;;;;-150.27;100.00;61272.81;5225821;28;20048;-73
2022/04/14 04:36:50;;;;;;;77.60;36.30;;;;;;;-150.27;100.00;61272.81;5218725;28;20049;-73
2022/04/14 04:39:21;;;;;;;78.77;36.83;;;;;;;-150.27;100.00;61272.81;5226981;28;20369;-72
2022/04/14 04:41:53;;;;;;;86.97;36.77;;;;;;;-150.27;100.00;61272.81;5229630;28;20038;-73
2022/04/14 04:44:24;;;;;;;78.13;36.70;;;;;;;-150.27;100.00;61272.81;5227802;28;20727;-73
2022/04/14 04:46:55;;;;;;;72.23;36.27;;;;;;;-150.27;100.00;61272.81;5227098;28;20033;-71
2022/04/14 04:49:26;;;;;;;67.13;35.77;;;;;;;-150.27;100.00;61272.81;5229833;28;20060;-73
2022/04/14 04:51:59;;;;;;;70.30;36.80;;;;;;;-150.27;100.00;61272.81;5230788;28;20044;-73
2022/04/14 04:54:31;;;;;;;79.30;35.03;;;;;;;-150.27;100.00;61272.81;5230006;28;20034;-73
2022/04/14 04:57:02;;;;;;;56.53;34.40;;;;;;;-150.27;100.00;61272.81;5214332;28;20029;-73
2022/04/14 04:59:34;;;;;;;59.57;34.00;;;;;;;-150.27;100.00;61272.81;5232364;28;20040;-72
2022/04/14 05:02:05;;;;;;;83.13;34.53;;;;;;;-150.27;100.00;61272.81;5228312;28;20033;-72
2022/04/14 05:04:37;;;;;;;67.30;35.90;;;;;;;-150.27;100.00;61272.81;5229746;28;20081;-72
2022/04/14 05:07:08;;;;;;;63.43;33.43;;;;;;;-150.27;100.00;61272.81;5210244;28;20572;-73
2022/04/14 05:09:39;;;;;;;52.03;36.50;;;;;;;-150.27;100.00;61272.81;5213555;28;20063;-72
2022/04/14 05:12:10;;;;;;;66.93;35.40;;;;;;;-150.27;100.00;61272.81;5224461;28;20037;-74
2022/04/14 05:14:42;;;;;;;46.77;33.47;;;;;;;-150.27;100.00;61272.81;5232301;28;20124;-72
2022/04/14 05:17:13;;;;;;;49.87;34.27;;;;;;;-150.27;100.00;61272.81;5231617;28;20025;-72
2022/04/14 05:19:45;;;;;;;57.73;34.33;;;;;;;-150.27;100.00;61272.81;5229623;28;20029;-72
2022/04/14 05:22:16;;;;;;;44.97;35.33;;;;;;;-150.27;100.00;61272.81;5229264;28;20033;-71
2022/04/14 05:24:47;;;;;;;57.17;33.20;;;;;;;-150.27;100.00;61272.81;5227419;28;20092;-74
2022/04/14 05:27:19;;;;;;;41.53;32.83;;;;;;;-150.27;100.00;61272.81;5212836;28;20083;-80
2022/04/14 05:29:50;;;;;;;56.27;32.20;;;;;;;-150.27;100.00;61272.81;5211164;28;20388;-79
2022/04/14 05:32:21;;;;;;;39.83;32.70;;;;;;;-150.27;100.00;61272.81;5228912;28;20083;-79
2022/04/14 05:34:53;;;;;;;37.47;33.57;;;;;;;-150.27;100.00;61272.81;5229912;28;20515;-77
2022/04/14 05:37:25;;;;;;;34.90;31.20;;;;;;;-150.27;100.00;61272.81;5230066;28;20243;-74
2022/04/14 05:39:56;;;;;;;37.83;32.20;;;;;;;-150.27;100.00;61272.81;5229406;28;20080;-74
2022/04/14 05:42:27;;;;;;;35.83;32.07;;;;;;;-150.27;100.00;61272.81;5227232;28;20033;-74
2022/04/14 05:44:59;;;;;;;34.70;31.07;;;;;;;-150.27;100.00;61272.81;5228684;28;20581;-73
2022/04/14 05:47:30;;;;;;;35.80;31.93;;;;;;;-150.27;100.00;61272.81;5226427;28;20075;-73
2022/04/14 05:50:01;;;;;;;34.00;30.30;;;;;;;-150.27;100.00;61272.81;5229948;28;20917;-74
2022/04/14 05:52:35;;;;;;;34.17;30.47;;;;;;;-150.27;100.00;61272.81;5210873;28;20079;-74
2022/04/14 05:55:09;;;;;;;33.45;29.70;;;;;;;-150.27;100.00;61272.81;5229525;28;20038;-75
2022/04/14 05:57:41;;;;;;;34.55;31.02;;;;;;;-150.27;100.00;61272.81;5226390;28;20032;-74
2022/04/14 06:00:13;;;;;;;32.93;29.37;;;;;;;-150.27;100.00;61272.81;5229254;28;20470;-74
2022/04/14 06:02:45;;;;;;;33.93;30.23;;;;;;;-150.27;100.00;61272.81;5212889;28;20029;-74
2022/04/14 06:05:16;;;;;;;34.27;30.50;;;;;;;-150.27;100.00;61272.81;5193872;28;20523;-74
2022/04/14 06:07:47;;;;;;;33.90;30.33;;;;;;;-150.27;100.00;61272.81;5191801;28;20417;-75
2022/04/14 06:10:19;;;;;;;31.93;28.63;;;;;;;-150.27;100.00;61272.81;5200755;28;20026;-74
2022/04/14 06:12:50;;;;;;;32.13;28.73;;;;;;;-150.27;100.00;61272.81;5198316;28;20017;-74
2022/04/14 06:15:22;;;;;;;32.17;28.60;;;;;;;-150.27;100.00;61272.81;5196812;28;20034;-75
2022/04/14 06:17:54;;;;;;;29.67;26.57;;;;;;;-150.27;100.00;61272.81;5199903;28;20030;-72
2022/04/14 06:20:25;;;;;;;31.43;28.13;;;;;;;-150.27;100.00;61272.81;5194490;28;20029;-73
2022/04/14 06:22:58;;;;;;;31.63;28.20;;;;;;;-150.27;100.00;61272.81;5198454;28;20101;-73
2022/04/14 06:25:30;;;;;;;32.33;28.90;;;;;;;-150.27;100.00;61272.81;5208433;28;20564;-73
2022/04/14 06:28:03;;;;;;;34.93;29.47;;;;;;;-150.27;100.00;61272.81;5199970;28;20361;-73
2022/04/14 06:30:35;;;;;;;32.17;28.67;;;;;;;-150.27;100.00;61272.81;5202876;28;20041;-73
2022/04/14 06:33:06;;;;;;;33.50;28.47;;;;;;;-150.27;100.00;61272.81;5191939;28;20034;-72
2022/04/14 06:35:38;;;;;;;30.30;27.03;;;;;;;-150.27;100.00;61272.81;5189015;28;20058;-73
2022/04/14 06:38:09;;;;;;;29.97;26.83;;;;;;;-150.27;100.00;61272.81;5195454;28;20026;-71
2022/04/14 06:40:40;;;;;;;32.17;28.63;;;;;;;-150.27;100.00;61272.81;5192712;28;20101;-72
2022/04/14 06:43:11;;;;;;;29.60;26.50;;;;;;;-150.27;100.00;61272.81;5195963;28;20240;-73
2022/04/14 06:45:43;;;;;;;31.60;28.07;;;;;;;-150.27;100.00;61272.81;5199666;28;20503;-73
2022/04/14 06:48:14;;;;;;;30.43;26.07;;;;;;;-150.27;100.00;61272.81;5203062;28;20038;-72
2022/04/14 06:50:46;;;;;;;32.63;29.17;;;;;;;-150.27;100.00;61272.81;5193344;28;20038;-73
2022/04/14 06:53:17;;;;;;;28.43;25.47;;;;;;;-150.27;100.00;61272.81;5203303;28;20097;-73
2022/04/14 06:55:49;;;;;;;29.97;26.77;;;;;;;-150.27;100.00;61272.81;5191984;28;20023;-69
2022/04/14 06:58:20;;;;;;;29.50;26.43;;;;;;;-150.27;100.00;61272.81;5208039;28;20060;-73
2022/04/14 07:00:52;;;;;;;28.47;25.30;;;;;;;-150.27;100.00;61272.81;5204366;28;20034;-71
2022/04/14 07:03:26;;;;;;;27.67;24.67;;;;;;;-150.27;100.00;61272.81;5203077;28;20038;-74
2022/04/14 07:06:00;;;;;;;28.23;25.08;;;;;;;-150.27;100.00;61272.81;5215348;28;21716;-74
2022/04/14 07:08:33;;;;;;;30.33;25.57;;;;;;;-150.27;100.00;61272.81;5218296;28;20128;-77
2022/04/14 07:11:04;;;;;;;28.53;25.40;;;;;;;-150.27;100.00;61272.81;5225719;28;20310;-76
2022/04/14 07:13:36;;;;;;;28.23;25.33;;;;;;;-150.27;100.00;61272.81;5214953;28;20030;-78
2022/04/14 07:16:07;;;;;;;27.70;24.93;;;;;;;-150.27;100.00;61272.81;5219556;28;20028;-75
2022/04/14 07:18:40;;;;;;;27.80;24.93;;;;;;;-150.27;100.00;61272.81;5222558;28;20036;-75
2022/04/14 07:21:11;;;;;;;29.47;24.57;;;;;;;-150.27;100.00;61272.81;5207538;28;20353;-77
2022/04/14 07:23:43;;;;;;;28.63;25.57;;;;;;;-150.27;100.00;61272.81;5228730;28;20032;-71
2022/04/14 07:26:14;;;;;;;29.47;25.70;;;;;;;-150.27;100.00;61272.81;5220457;28;20047;-71
2022/04/14 07:28:46;;;;;;;29.60;26.40;;;;;;;-150.27;100.00;61272.81;5223402;28;20037;-72
2022/04/14 07:31:17;;;;;;;30.23;27.03;;;;;;;-150.27;100.00;61272.81;5223943;28;20542;-72
2022/04/14 07:33:48;;;;;;;27.37;24.13;;;;;;;-150.27;100.00;61272.81;5225099;28;20431;-74
2022/04/14 07:36:21;;;;;;;29.47;25.03;;;;;;;-150.27;100.00;61272.81;5217747;28;20029;-74
2022/04/14 07:38:52;;;;;;;28.37;24.20;;;;;;;-150.27;100.00;61272.81;5227241;28;20025;-74
2022/04/14 07:41:24;;;;;;;23.97;21.67;;;;;;;-150.27;100.00;61272.81;5227178;28;20024;-74
2022/04/14 07:43:56;;;;;;;22.37;20.03;;;;;;;-150.27;100.00;61272.81;5227820;28;20108;-72
2022/04/14 07:46:27;;;;;;;24.67;20.23;;;;;;;-150.27;100.00;61272.81;5210970;28;20116;-75
2022/04/14 07:48:59;;;;;;;18.37;16.47;;;;;;;-150.27;100.00;61272.81;5225806;28;20025;-74
2022/04/14 07:51:30;;;;;;;22.20;18.50;;;;;;;-150.27;100.00;61272.81;5227113;28;20830;-75
2022/04/14 07:54:01;;;;;;;23.47;18.33;;;;;;;-150.27;100.00;61272.81;5227534;28;20029;-73
2022/04/14 07:56:33;;;;;;;18.87;16.67;;;;;;;-150.27;100.00;61272.81;5211203;28;20029;-73
2022/04/14 07:59:04;;;;;;;18.77;16.53;;;;;;;-150.27;100.00;61272.81;5220641;28;20076;-73
2022/04/14 08:01:35;;;;;;;17.43;15.57;;;;;;;-150.27;100.00;61272.81;5218739;28;20018;-75
2022/04/14 08:04:06;;;;;;;15.23;13.73;;;;;;;-150.27;100.00;61272.81;5224692;28;20045;-73
2022/04/14 08:06:38;;;;;;;16.05;13.13;;;;;;;-150.27;100.00;61272.81;5215180;28;20088;-74
2022/04/14 08:09:09;;;;;;;14.35;12.95;;;;;;;-150.27;100.00;61272.81;5227462;28;20026;-75
2022/04/14 08:11:40;;;;;;;14.98;12.10;;;;;;;-150.27;100.00;61272.81;5209628;28;20033;-75
2022/04/14 08:14:12;;;;;;;12.25;11.00;;;;;;;-150.27;100.00;61272.81;5224854;28;20075;-75
2022/04/14 08:16:43;;;;;;;10.77;9.45;;;;;;;-150.27;100.00;61272.81;5218385;28;20037;-75
2022/04/14 08:19:15;;;;;;;12.05;9.77;;;;;;;-150.27;100.00;61272.81;5208910;28;20498;-74
2022/04/14 08:21:46;;;;;;;12.02;10.40;;;;;;;-150.27;100.00;61272.81;5222446;28;20041;-74
2022/04/14 08:24:17;;;;;;;10.43;9.35;;;;;;;-150.27;100.00;61272.81;5179605;28;20034;-74
2022/04/14 08:26:48;;;;;;;12.65;9.75;;;;;;;-150.27;100.00;61272.81;5221019;28;20060;-75
2022/04/14 08:29:20;;;;;;;10.90;9.75;;;;;;;-150.27;100.00;61272.81;5213898;28;20026;-73
2022/04/14 08:31:51;;;;;;;11.82;9.55;;;;;;;-150.27;100.00;61272.81;5229410;28;20061;-76
2022/04/14 08:34:23;;;;;;;10.75;9.25;;;;;;;-150.27;100.00;61272.81;5222143;28;20041;-80
2022/04/14 08:36:54;;;;;;;10.02;8.30;;;;;;;-150.27;100.00;61272.81;5230040;28;20063;-76
2022/04/14 08:39:29;;;;;;;10.07;9.00;;;;;;;-150.27;100.00;61272.81;5230015;28;20479;-77
2022/04/14 08:42:12;;;;;;;9.65;8.10;;;;;;;-150.27;100.00;61272.81;5231034;28;20021;-77
2022/04/14 08:44:53;;;;;;;8.88;7.82;;;;;;;-150.27;100.00;61272.81;5217739;28;20029;-77
2022/04/14 08:47:28;;;;;;;8.63;7.57;;;;;;;-150.27;100.00;61272.81;5211790;28;20095;-77
2022/04/14 08:50:00;;;;;;;8.68;7.78;;;;;;;-150.27;100.00;61272.81;5222212;28;20079;-77
2022/04/14 08:52:34;;;;;;;10.68;7.63;;;;;;;-150.27;100.00;61272.81;5227185;28;20037;-78
2022/04/14 08:55:11;;;;;;;8.80;6.47;;;;;;;-150.27;100.00;61272.81;5221589;28;20029;-77
2022/04/14 08:57:42;;;;;;;9.18;6.47;;;;;;;-150.27;100.00;61272.81;5227486;28;20021;-76
2022/04/14 09:00:18;;;;;;;8.27;6.65;;;;;;;-150.27;100.00;61272.81;5229978;28;20034;-76
2022/04/14 09:02:53;;;;;;;8.32;6.07;;;;;;;-150.27;100.00;61272.81;5228604;28;20033;-76
2022/04/14 09:05:24;;;;;;;9.50;6.40;;;;;;;-150.27;100.00;61272.81;5225820;28;20539;-76
2022/04/14 09:07:55;;;;;;;8.40;7.57;;;;;;;-150.27;100.00;61272.81;5225881;28;20030;-77
2022/04/14 09:10:27;;;;;;;10.05;6.97;;;;;;;-150.27;100.00;61272.81;5230730;28;20029;-78
2022/04/14 09:12:58;;;;;;;8.13;6.90;;;;;;;-150.27;100.00;61272.81;5229572;28;20388;-77
2022/04/14 09:15:30;;;;;;;8.32;7.22;;;;;;;-150.27;100.00;61272.81;5210252;28;20022;-76
2022/04/14 09:18:01;;;;;;;8.38;5.70;;;;;;;-150.27;100.00;61272.81;5220984;28;20357;-77
2022/04/14 09:20:37;;;;;;;9.30;5.60;;;;;;;-150.27;100.00;61272.81;5228861;28;20428;-75
2022/04/14 09:23:13;;;;;;;7.88;5.10;;;;;;;-150.27;100.00;61272.81;5230824;28;20036;-76
2022/04/14 09:25:44;;;;;;;8.02;5.07;;;;;;;-150.27;100.00;61272.81;5216301;28;20030;-76
2022/04/14 09:28:19;;;;;;;8.80;5.32;;;;;;;-150.27;100.00;61272.81;5199435;28;20061;-75
2022/04/14 09:31:06;;;;;;;8.77;5.60;;;;;;;-150.27;100.00;61272.81;5229038;28;20031;-76
2022/04/14 09:33:45;;;;;;;8.40;5.15;;;;;;;-150.27;100.00;61272.81;5229340;28;20048;-76
2022/04/14 09:36:19;;;;;;;6.68;4.78;;;;;;;-150.27;100.00;61272.81;5211260;28;20505;-75
2022/04/14 09:38:59;;;;;;;9.73;5.75;;;;;;;-150.27;100.00;61272.81;5212109;28;20120;-75
2022/04/14 09:41:39;;;;;;;7.13;5.38;;;;;;;-150.27;100.00;61272.81;5229737;28;20361;-75
2022/04/14 09:44:12;;;;;;;9.27;6.65;;;;;;;-150.27;100.00;61272.81;5203958;28;20373;-75
2022/04/14 09:46:46;;;;;;;6.30;5.03;;;;;;;-150.27;100.00;61272.81;5210138;28;20040;-76
2022/04/14 09:49:18;;;;;;;8.88;6.30;;;;;;;-150.27;100.00;61272.81;5229062;28;20033;-76
2022/04/14 09:51:51;;;;;;;6.00;5.40;;;;;;;-150.27;100.00;61272.81;5227784;28;20013;-76
2022/04/14 09:54:28;;;;;;;10.40;5.18;;;;;;;-150.27;100.00;61272.81;5225703;28;20112;-72
2022/04/14 09:57:00;;;;;;;7.60;4.70;;;;;;;-150.27;100.00;61272.81;5231431;28;20053;-77
2022/04/14 09:59:32;;;;;;;4.78;3.97;;;;;;;-150.27;100.00;61272.81;5230677;28;20131;-76
2022/04/14 10:02:10;;;;;;;5.68;4.18;;;;;;;-150.27;100.00;61272.81;5229514;28;20112;-77
2022/04/14 10:04:47;;;;;;;6.20;4.70;;;;;;;-150.27;100.00;61272.81;5217153;28;20053;-76
2022/04/14 10:07:20;;;;;;;6.60;4.75;;;;;;;-150.27;100.00;61272.81;5204838;28;20547;-76
2022/04/14 10:09:53;;;;;;;6.50;4.97;;;;;;;-150.27;100.00;61272.81;5224916;28;20045;-77
2022/04/14 10:12:24;;;;;;;6.80;5.10;;;;;;;-150.27;100.00;61272.81;5224089;28;20092;-75
2022/04/14 10:14:55;;;;;;;6.55;5.25;;;;;;;-150.27;100.00;61272.81;5216321;28;20026;-76
2022/04/14 10:17:29;;;;;;;5.47;3.50;;;;;;;-150.27;100.00;61272.81;5213954;28;20037;-73
2022/04/14 10:20:00;;;;;;;;;;;;;;;-150.27;100.00;61272.81;5226567;28;20374;-74
2022/04/14 10:22:32;;;;;;;4.75;3.15;;;;;;;-150.27;100.00;61272.81;5228109;28;20012;-77
2022/04/14 10:25:05;;;;;;;5.68;2.90;;;;;;;-150.27;100.00;61272.81;5220979;28;20037;-76
2022/04/14 10:27:36;;;;;;;7.43;3.88;;;;;;;-150.27;100.00;61272.81;5223530;28;20396;-76
2022/04/14 10:30:08;;;;;;;6.30;3.30;;;;;;;-150.27;100.00;61272.81;5223383;28;20037;-76
2022/04/14 10:32:42;;;;;;;4.60;2.90;;;;;;;-150.27;100.00;61272.81;5225208;28;20033;-78
2022/04/14 10:35:14;;;;;;;3.72;2.63;;;;;;;-150.27;100.00;61272.81;5203452;28;20024;-88
2022/04/14 10:37:50;;;;;;;7.47;3.90;;;;;;;-150.27;100.00;61272.81;5222464;28;20038;-78
2022/04/14 10:40:21;;;;;;;4.88;3.20;;;;;;;-150.27;100.00;61272.81;5226556;28;20120;-77
2022/04/14 10:42:55;;;;;;;6.68;3.67;;;;;;;-150.27;100.00;61272.81;5195511;28;20030;-77
2022/04/14 10:45:26;;;;;;;;;;;;;;;-150.27;100.00;61272.81;5200292;28;20033;-76
2022/04/14 10:47:59;;;;;;;18.25;4.30;;;;;;;-150.27;100.00;61272.81;5205656;28;19960;-76
2022/04/14 10:50:33;;;;;;;5.13;3.42;;;;;;;-150.27;100.00;61272.81;5203660;28;21018;-74
2022/04/14 10:53:11;;;;;;;5.30;2.80;;;;;;;-150.27;100.00;61272.81;5203055;28;20046;-73
2022/04/14 10:55:50;;;;;;;4.25;2.88;;;;;;;-150.27;100.00;61272.81;5194186;28;20037;-73
2022/04/14 10:58:36;;;;;;;6.85;2.90;;;;;;;-150.27;100.00;61272.81;5205179;28;20029;-76
2022/04/14 11:01:12;;;;;;;4.88;2.70;;;;;;;-150.27;100.00;61272.81;5200994;28;20475;-76
2022/04/14 11:03:48;;;;;;;3.90;2.58;;;;;;;-150.27;100.00;61272.81;5209201;28;20034;-75
2022/04/14 11:06:39;;;;;;;5.75;2.92;;;;;;;-150.27;100.00;61272.81;5206389;28;20120;-75
2022/04/14 11:09:42;;;;;;;3.47;2.65;;;;;;;-150.27;100.00;61272.81;5207196;28;20041;-85
2022/04/14 11:12:32;;;;;;;4.63;3.15;;;;;;;-150.27;100.00;61272.81;5203449;28;21395;-77
2022/04/14 11:15:06;;;;;;;4.03;3.17;;;;;;;-150.27;100.00;61272.81;5202913;28;20064;-77
2022/04/14 11:17:37;;;;;;;4.82;2.92;;;;;;;-150.27;100.00;61272.81;5204578;28;20025;-76
2022/04/14 11:20:18;;;;;;;5.72;1.90;;;;;;;-150.27;100.00;61272.81;5202411;28;20038;-75
2022/04/14 11:23:06;;;;;;;4.82;2.53;;;;;;;-150.27;100.00;61272.81;5204214;28;20440;-80